Time;durP1;ratioP1;P1;durP2;ratioP2;P2;SDS_P1;SDS_P2;PMS_P1;PMS_P2;Temp;Humidity;BMP_temperature;BMP_pressure;BME280_temperature;BME280_humidity;BME280_pressure;Samples;Min_cycle;Max_cycle;Signal;HPM_P1;HPM_P2
2022/09/24 00:00:44;;;;;;;32.50;28.42;;;13.60;99.90;;;;;;5074081;28;20098;-71
2022/09/24 00:03:10;;;;;;;32.35;28.85;;;13.50;99.90;;;;;;5073990;28;20127;-71
2022/09/24 00:05:39;;;;;;;31.92;28.50;;;13.60;99.90;;;;;;5074447;28;20044;-71
2022/09/24 00:08:08;;;;;;;31.23;27.98;;;13.60;99.90;;;;;;5074173;28;20131;-71
2022/09/24 00:10:38;;;;;;;33.10;29.42;;;13.60;99.90;;;;;;5074299;28;20076;-71
2022/09/24 00:13:11;;;;;;;30.60;27.45;;;13.50;99.90;;;;;;5074080;28;20036;-71
2022/09/24 00:15:46;;;;;;;32.05;28.65;;;13.50;99.90;;;;;;5074056;28;20038;-71
2022/09/24 00:18:13;;;;;;;33.42;29.77;;;13.50;99.90;;;;;;5074023;28;20048;-71
2022/09/24 00:20:39;;;;;;;32.10;28.75;;;13.50;99.90;;;;;;5055792;28;20097;-71
2022/09/24 00:23:06;;;;;;;34.72;30.10;;;13.50;99.90;;;;;;5073924;28;20044;-71
2022/09/24 00:28:17;;;;;;;34.10;28.98;;;13.50;99.90;;;;;;5073538;28;20048;-71
2022/09/24 00:30:43;;;;;;;32.70;29.38;;;13.50;99.90;;;;;;5073730;28;20089;-71
2022/09/24 00:33:10;;;;;;;36.13;32.05;;;13.50;99.90;;;;;;5073639;28;20041;-71
2022/09/24 00:35:37;;;;;;;35.60;30.38;;;13.50;99.90;;;;;;5073481;28;20099;-71
2022/09/24 00:38:05;;;;;;;34.30;30.67;;;13.50;99.90;;;;;;5073497;28;20072;-71
2022/09/24 00:40:35;;;;;;;34.85;30.95;;;13.50;99.90;;;;;;5073357;28;20135;-71
2022/09/24 00:43:19;;;;;;;35.50;31.80;;;13.50;99.90;;;;;;5073629;28;20048;-71
2022/09/24 00:45:45;;;;;;;34.70;30.70;;;13.50;99.90;;;;;;5073509;28;20411;-71
2022/09/24 00:48:11;;;;;;;35.97;31.73;;;13.50;99.90;;;;;;5073277;28;20044;-71
2022/09/24 00:50:36;;;;;;;37.85;30.55;;;13.40;99.90;;;;;;5073754;28;20051;-71
2022/09/24 00:53:16;;;;;;;37.63;33.10;;;13.50;99.90;;;;;;5073143;28;20041;-71
2022/09/24 00:55:44;;;;;;;34.78;30.95;;;13.50;99.90;;;;;;5073394;28;20055;-71
2022/09/24 00:58:12;;;;;;;34.88;31.15;;;13.40;99.90;;;;;;5072362;28;20395;-71
2022/09/24 01:00:44;;;;;;;33.17;29.58;;;13.40;99.90;;;;;;5073179;28;20392;-71
2022/09/24 01:03:17;;;;;;;36.13;31.08;;;13.40;99.90;;;;;;5072090;28;20055;-71
2022/09/24 01:05:43;;;;;;;36.35;31.90;;;13.40;99.90;;;;;;5055299;28;20048;-71
2022/09/24 01:08:13;;;;;;;34.88;31.15;;;13.40;99.90;;;;;;5075536;28;20040;-71
2022/09/24 01:10:50;;;;;;;34.88;31.15;;;13.40;99.90;;;;;;5074605;28;20124;-71
2022/09/24 01:13:39;;;;;;;34.67;30.98;;;13.40;99.90;;;;;;5073134;28;20406;-71
2022/09/24 01:16:25;;;;;;;35.00;30.65;;;13.40;99.90;;;;;;5055171;28;20063;-71
2022/09/24 01:19:23;;;;;;;35.35;29.80;;;13.40;99.90;;;;;;5073328;28;20467;-71
2022/09/24 01:21:55;;;;;;;37.38;32.03;;;13.40;99.90;;;;;;5073435;28;20051;-71
2022/09/24 01:24:43;;;;;;;31.65;28.35;;;13.40;99.90;;;;;;5072980;28;20403;-71
2022/09/24 01:27:34;;;;;;;33.25;29.73;;;13.40;99.90;;;;;;5055218;28;20123;-71
2022/09/24 01:30:06;;;;;;;34.25;30.55;;;13.40;99.90;;;;;;5073026;28;20123;-71
2022/09/24 01:32:48;;;;;;;33.20;29.67;;;13.40;99.90;;;;;;5055010;28;20063;-71
2022/09/24 01:35:14;;;;;;;35.42;31.73;;;13.40;99.90;;;;;;5073179;28;20391;-72
2022/09/24 01:37:44;;;;;;;35.25;31.27;;;13.40;99.90;;;;;;5073006;28;20120;-71
2022/09/24 01:40:11;;;;;;;35.17;31.55;;;13.40;99.90;;;;;;5072754;28;20113;-71
2022/09/24 01:42:41;;;;;;;36.55;30.58;;;13.40;99.90;;;;;;5072809;28;20057;-71
2022/09/24 01:45:08;;;;;;;34.55;30.83;;;13.30;99.90;;;;;;5072745;28;20052;-72
2022/09/24 01:47:38;;;;;;;35.17;31.55;;;13.30;99.90;;;;;;5072975;28;20044;-71
2022/09/24 01:50:06;;;;;;;34.65;30.92;;;13.40;99.90;;;;;;5054795;28;20384;-71
2022/09/24 01:52:42;;;;;;;35.30;31.55;;;13.30;99.90;;;;;;5072761;28;20064;-71
2022/09/24 01:55:13;;;;;;;33.63;29.98;;;13.30;99.90;;;;;;5072810;28;20048;-71
2022/09/24 01:57:47;;;;;;;41.38;32.05;;;13.30;99.90;;;;;;5072835;28;20128;-71
2022/09/24 02:00:16;;;;;;;37.83;33.50;;;13.30;99.90;;;;;;5072824;28;20048;-71
2022/09/24 02:03:00;;;;;;;38.60;32.72;;;13.40;99.90;;;;;;5072441;28;20049;-71
2022/09/24 02:06:08;;;;;;;40.97;34.65;;;13.30;99.90;;;;;;5072630;28;20097;-71
2022/09/24 02:08:41;;;;;;;40.70;34.03;;;13.30;99.90;;;;;;5044162;28;20139;-71
2022/09/24 02:11:23;;;;;;;38.78;34.78;;;13.30;99.90;;;;;;5076567;28;20043;-71
2022/09/24 02:14:09;;;;;;;40.40;36.00;;;13.30;99.90;;;;;;5041580;28;20036;-71
2022/09/24 02:16:45;;;;;;;42.10;34.95;;;13.30;99.90;;;;;;5075972;28;20511;-71
2022/09/24 02:19:25;;;;;;;38.35;33.80;;;13.30;99.90;;;;;;5076385;28;20093;-71
2022/09/24 02:21:51;;;;;;;42.08;35.67;;;13.30;99.90;;;;;;5058052;28;20095;-71
2022/09/24 02:24:27;;;;;;;39.08;35.00;;;13.30;99.90;;;;;;5076036;28;20037;-71
2022/09/24 02:26:54;;;;;;;44.83;38.47;;;13.30;99.90;;;;;;5076251;28;20040;-71
2022/09/24 02:29:20;;;;;;;43.65;37.13;;;13.30;99.90;;;;;;5076135;28;20045;-71
2022/09/24 02:31:48;;;;;;;46.90;37.70;;;13.30;99.90;;;;;;5076061;28;20049;-71
2022/09/24 02:34:24;;;;;;;43.38;38.35;;;13.30;99.90;;;;;;5076104;28;20437;-71
2022/09/24 02:36:54;;;;;;;43.33;38.40;;;13.30;99.90;;;;;;5058089;28;20136;-71
2022/09/24 02:39:20;;;;;;;41.05;35.30;;;13.30;99.90;;;;;;5075708;28;20040;-71
2022/09/24 02:41:48;;;;;;;45.63;38.88;;;13.30;99.90;;;;;;5075447;28;20463;-71
2022/09/24 02:44:15;;;;;;;44.08;37.72;;;13.30;99.90;;;;;;5075840;28;20062;-71
2022/09/24 02:46:41;;;;;;;40.50;36.20;;;13.20;99.90;;;;;;5076014;28;20045;-71
2022/09/24 02:49:08;;;;;;;42.60;38.00;;;13.20;99.90;;;;;;5074572;28;20306;-71
2022/09/24 02:51:34;;;;;;;42.47;37.87;;;13.30;99.90;;;;;;5057648;28;20044;-73
2022/09/24 02:54:00;;;;;;;43.45;38.72;;;13.30;99.90;;;;;;5075246;28;20177;-71
2022/09/24 02:56:27;;;;;;;42.67;37.03;;;13.20;99.90;;;;;;5076204;28;20123;-71
2022/09/24 02:58:53;;;;;;;36.80;32.88;;;13.20;99.90;;;;;;5075560;28;20483;-71
2022/09/24 03:01:19;;;;;;;44.10;37.70;;;13.20;99.90;;;;;;5074020;28;20044;-71
2022/09/24 03:03:44;;;;;;;44.42;38.08;;;13.20;99.90;;;;;;5075438;28;20402;-71
2022/09/24 03:06:12;;;;;;;43.78;36.97;;;13.20;99.90;;;;;;5057630;28;20037;-71
2022/09/24 03:08:38;;;;;;;46.05;38.58;;;13.20;99.90;;;;;;5075314;28;20041;-71
2022/09/24 03:11:04;;;;;;;44.08;37.85;;;13.20;99.90;;;;;;5075371;28;20040;-71
2022/09/24 03:13:29;;;;;;;41.72;36.58;;;13.20;99.90;;;;;;5075257;28;20446;-71
2022/09/24 03:15:55;;;;;;;41.60;36.92;;;13.30;99.90;;;;;;5075142;28;20109;-71
2022/09/24 03:18:21;;;;;;;39.90;34.80;;;13.20;99.90;;;;;;5075072;28;20419;-71
2022/09/24 03:21:01;;;;;;;38.88;32.38;;;13.20;99.90;;;;;;5074069;28;20621;-71
2022/09/24 03:23:27;;;;;;;39.20;34.90;;;13.30;99.90;;;;;;5075138;28;20059;-71
2022/09/24 03:25:53;;;;;;;39.38;35.22;;;13.20;99.90;;;;;;5057325;28;20127;-71
2022/09/24 03:28:19;;;;;;;41.85;35.05;;;13.30;99.90;;;;;;5074916;28;20412;-71
2022/09/24 03:31:00;;;;;;;37.92;33.92;;;13.30;99.90;;;;;;5074952;28;20044;-71
2022/09/24 03:33:33;;;;;;;39.22;34.97;;;13.30;99.90;;;;;;5056832;28;20044;-71
2022/09/24 03:36:08;;;;;;;35.55;31.77;;;13.30;99.90;;;;;;5056727;28;20550;-71
2022/09/24 03:38:35;;;;;;;38.53;33.70;;;13.30;99.90;;;;;;5074550;28;20054;-71
2022/09/24 03:41:01;;;;;;;42.03;35.10;;;13.30;99.90;;;;;;5074302;28;20056;-71
2022/09/24 03:43:27;;;;;;;37.13;32.92;;;13.30;99.90;;;;;;5074508;28;20052;-71
2022/09/24 03:45:54;;;;;;;37.33;32.60;;;13.30;99.90;;;;;;5074409;28;20552;-71
2022/09/24 03:48:21;;;;;;;38.08;31.20;;;13.20;99.90;;;;;;5074342;28;20044;-71
2022/09/24 03:50:47;;;;;;;33.90;29.52;;;13.20;99.90;;;;;;5074462;28;20510;-71
2022/09/24 03:53:14;;;;;;;37.33;30.77;;;13.20;99.90;;;;;;5074375;28;20044;-71
2022/09/24 03:55:43;;;;;;;36.80;32.83;;;13.20;99.90;;;;;;5074313;28;20415;-71
2022/09/24 03:58:09;;;;;;;32.80;29.05;;;13.20;99.90;;;;;;5074208;28;20503;-71
2022/09/24 04:00:35;;;;;;;32.75;28.38;;;13.20;99.90;;;;;;5056415;28;20582;-71
2022/09/24 04:03:00;;;;;;;33.13;29.52;;;13.20;99.90;;;;;;5074077;28;20119;-71
2022/09/24 04:05:28;;;;;;;34.15;30.55;;;13.20;99.90;;;;;;5074212;28;20076;-71
2022/09/24 04:07:53;;;;;;;34.30;30.30;;;13.20;99.90;;;;;;5074089;28;20045;-71
2022/09/24 04:10:19;;;;;;;34.05;30.40;;;13.20;99.90;;;;;;5074138;28;20045;-71
2022/09/24 04:12:44;;;;;;;35.97;29.85;;;13.20;99.90;;;;;;5056278;28;20053;-71
2022/09/24 04:15:11;;;;;;;32.58;28.77;;;13.20;99.90;;;;;;5073753;28;20036;-71
2022/09/24 04:17:36;;;;;;;34.30;30.45;;;13.20;99.90;;;;;;5073788;28;20501;-72
2022/09/24 04:20:02;;;;;;;31.98;28.45;;;13.20;99.90;;;;;;5073750;28;20125;-71
2022/09/24 04:22:28;;;;;;;33.38;28.10;;;13.20;99.90;;;;;;5073703;28;20117;-71
2022/09/24 04:24:56;;;;;;;32.47;28.90;;;13.30;99.90;;;;;;5073741;28;20047;-71
2022/09/24 04:27:22;;;;;;;32.03;27.23;;;13.30;99.90;;;;;;5073631;28;20055;-71
2022/09/24 04:29:48;;;;;;;30.67;27.48;;;13.30;99.90;;;;;;5073644;28;20032;-71
2022/09/24 04:32:13;;;;;;;28.90;25.08;;;13.30;99.90;;;;;;5073719;28;20040;-71
2022/09/24 04:34:39;;;;;;;28.70;25.70;;;13.30;99.90;;;;;;5073706;28;20412;-71
2022/09/24 04:37:05;;;;;;;30.85;27.42;;;13.30;99.90;;;;;;5055794;28;20488;-71
2022/09/24 04:39:31;;;;;;;29.60;25.95;;;13.30;99.90;;;;;;5073587;28;20047;-71
2022/09/24 04:41:56;;;;;;;33.03;28.30;;;13.30;99.90;;;;;;5073207;28;20044;-71
2022/09/24 04:44:22;;;;;;;29.05;25.52;;;13.30;99.90;;;;;;5073252;28;20044;-71
2022/09/24 04:46:48;;;;;;;28.85;25.77;;;13.30;99.90;;;;;;5073535;28;20411;-71
2022/09/24 04:49:14;;;;;;;30.10;26.92;;;13.30;99.90;;;;;;5073493;28;20052;-71
2022/09/24 04:51:40;;;;;;;28.75;25.77;;;13.30;99.90;;;;;;5073400;28;20045;-71
2022/09/24 04:54:07;;;;;;;30.35;27.05;;;13.30;99.90;;;;;;5073354;28;20120;-71
2022/09/24 04:56:32;;;;;;;31.20;27.10;;;13.30;99.90;;;;;;5073658;28;20040;-71
2022/09/24 04:58:58;;;;;;;32.13;27.67;;;13.40;99.90;;;;;;5074957;28;20043;-71
2022/09/24 05:01:24;;;;;;;34.47;29.60;;;13.30;99.90;;;;;;5073475;28;20044;-71
2022/09/24 05:03:50;;;;;;;32.40;28.70;;;13.40;99.90;;;;;;5073365;28;20487;-71
2022/09/24 05:06:15;;;;;;;30.38;27.15;;;13.30;99.90;;;;;;5073348;28;20097;-71
2022/09/24 05:08:41;;;;;;;30.27;26.98;;;13.30;99.90;;;;;;5073238;28;20086;-71
2022/09/24 05:11:07;;;;;;;29.38;26.27;;;13.30;99.90;;;;;;5073064;28;20040;-71
2022/09/24 05:13:34;;;;;;;30.10;26.83;;;13.30;99.90;;;;;;5073085;28;20075;-71
2022/09/24 05:16:00;;;;;;;30.67;27.27;;;13.30;99.90;;;;;;5073281;28;20040;-71
2022/09/24 05:18:26;;;;;;;31.38;27.98;;;13.30;99.90;;;;;;5073208;28;20372;-71
2022/09/24 05:20:52;;;;;;;32.28;28.80;;;13.40;99.90;;;;;;5073117;28;20053;-71
2022/09/24 05:23:18;;;;;;;29.98;26.70;;;13.30;99.90;;;;;;5073027;28;20044;-71
2022/09/24 05:28:27;;;;;;;31.55;28.15;;;13.30;99.90;;;;;;5073215;28;20052;-71
2022/09/24 05:30:57;;;;;;;33.38;27.88;;;13.30;99.90;;;;;;5055201;28;20037;-71
2022/09/24 05:33:23;;;;;;;32.47;29.02;;;13.30;99.90;;;;;;5073009;28;20083;-71
2022/09/24 05:35:56;;;;;;;31.00;27.77;;;13.40;99.90;;;;;;5055210;28;20076;-71
2022/09/24 05:38:23;;;;;;;32.80;29.00;;;13.30;99.90;;;;;;5072987;28;20062;-71
2022/09/24 05:40:49;;;;;;;33.05;28.58;;;13.30;99.90;;;;;;5072423;28;20056;-71
2022/09/24 05:43:16;;;;;;;33.80;30.10;;;13.30;99.90;;;;;;5073784;28;20048;-71
2022/09/24 05:45:44;;;;;;;37.08;30.95;;;13.40;99.90;;;;;;5076868;28;20123;-71
2022/09/24 05:48:10;;;;;;;34.30;27.92;;;13.30;99.90;;;;;;5076847;28;20041;-71
2022/09/24 05:50:35;;;;;;;34.45;30.75;;;13.30;99.90;;;;;;5076697;28;20517;-71
2022/09/24 05:53:02;;;;;;;36.03;31.45;;;13.30;99.90;;;;;;5076579;28;20060;-71
2022/09/24 05:55:28;;;;;;;35.20;30.83;;;13.40;99.90;;;;;;5076869;28;20376;-71
2022/09/24 05:57:53;;;;;;;34.45;30.13;;;13.40;99.90;;;;;;5076654;28;20048;-71
2022/09/24 06:00:19;;;;;;;38.22;31.13;;;13.30;99.90;;;;;;5076696;28;20036;-71
2022/09/24 06:02:44;;;;;;;35.40;31.55;;;13.30;99.90;;;;;;5076507;28;20074;-71
2022/09/24 06:05:11;;;;;;;33.35;29.60;;;13.40;99.90;;;;;;5076338;28;20495;-71
2022/09/24 06:07:37;;;;;;;39.63;33.17;;;13.40;99.90;;;;;;5076319;28;20047;-72
2022/09/24 06:10:06;;;;;;;36.78;31.55;;;13.40;99.90;;;;;;5076433;28;20045;-71
2022/09/24 06:12:33;;;;;;;39.72;32.72;;;13.40;99.90;;;;;;5058506;28;20380;-71
2022/09/24 06:15:00;;;;;;;39.17;33.83;;;13.40;99.90;;;;;;5076214;28;20055;-71
2022/09/24 06:17:27;;;;;;;38.33;32.70;;;13.40;99.90;;;;;;5076494;28;20458;-71
2022/09/24 06:19:53;;;;;;;38.40;33.07;;;13.40;99.90;;;;;;5076473;28;20483;-71
2022/09/24 06:22:19;;;;;;;37.53;33.08;;;13.50;99.90;;;;;;5075875;28;20305;-71
2022/09/24 06:24:45;;;;;;;39.92;33.17;;;13.50;99.90;;;;;;5076720;28;20045;-71
2022/09/24 06:27:11;;;;;;;41.22;34.95;;;13.50;99.90;;;;;;5076303;28;20369;-71
2022/09/24 06:29:37;;;;;;;40.55;33.33;;;13.50;99.90;;;;;;5076194;28;20052;-71
2022/09/24 06:32:03;;;;;;;41.50;34.97;;;13.50;99.90;;;;;;5075901;28;20403;-71
2022/09/24 06:34:29;;;;;;;42.53;33.95;;;13.60;99.90;;;;;;5075866;28;20044;-71
2022/09/24 06:36:55;;;;;;;39.10;33.03;;;13.60;99.90;;;;;;5075847;28;20045;-71
2022/09/24 06:39:25;;;;;;;38.95;33.78;;;13.60;99.90;;;;;;5075835;28;20048;-71
2022/09/24 06:41:52;;;;;;;41.13;34.40;;;13.60;99.90;;;;;;5075534;28;20060;-71
2022/09/24 06:44:18;;;;;;;37.25;33.15;;;13.60;99.90;;;;;;5076087;28;20080;-71
2022/09/24 06:46:44;;;;;;;41.65;34.78;;;13.60;99.90;;;;;;5075581;28;20491;-71
2022/09/24 06:49:10;;;;;;;40.83;35.03;;;13.60;99.90;;;;;;5075625;28;20119;-71
2022/09/24 06:51:36;;;;;;;39.85;35.47;;;13.70;99.90;;;;;;5075480;28;20043;-71
2022/09/24 06:54:01;;;;;;;42.42;35.70;;;13.70;99.90;;;;;;5075605;28;20119;-72
2022/09/24 06:56:28;;;;;;;39.13;33.72;;;13.70;99.90;;;;;;5074623;28;20036;-71
2022/09/24 06:58:54;;;;;;;41.92;35.50;;;13.70;99.90;;;;;;5075593;28;20040;-71
2022/09/24 07:01:20;;;;;;;37.63;33.53;;;13.70;99.90;;;;;;5075299;28;20043;-71
2022/09/24 07:03:45;;;;;;;40.40;34.50;;;13.70;99.90;;;;;;5075330;28;20037;-71
2022/09/24 07:06:11;;;;;;;38.83;33.35;;;13.80;99.90;;;;;;5075783;28;20495;-71
2022/09/24 07:08:37;;;;;;;41.80;34.08;;;13.80;99.90;;;;;;5075485;28;20040;-71
2022/09/24 07:11:03;;;;;;;39.75;33.58;;;13.80;99.90;;;;;;5057582;28;20048;-71
2022/09/24 07:13:29;;;;;;;39.50;34.75;;;13.80;99.90;;;;;;5075079;28;20045;-71
2022/09/24 07:15:54;;;;;;;41.00;34.53;;;13.90;99.90;;;;;;5075085;28;20487;-71
2022/09/24 07:18:20;;;;;;;38.47;32.55;;;13.90;99.90;;;;;;5075170;28;20036;-71
2022/09/24 07:20:54;;;;;;;39.70;33.22;;;14.00;99.90;;;;;;5074870;28;20044;-71
2022/09/24 07:23:20;;;;;;;38.58;33.45;;;14.00;99.90;;;;;;5074838;28;20380;-71
2022/09/24 07:25:47;;;;;;;38.38;33.25;;;14.00;99.90;;;;;;5074907;28;20052;-71
2022/09/24 07:28:14;;;;;;;36.13;32.03;;;14.00;99.90;;;;;;5075246;28;20045;-71
2022/09/24 07:30:40;;;;;;;35.95;32.05;;;14.10;99.90;;;;;;5057123;28;20080;-71
2022/09/24 07:33:06;;;;;;;35.30;31.48;;;14.10;99.90;;;;;;5074667;28;20044;-71
2022/09/24 07:35:32;;;;;;;36.38;31.83;;;14.10;99.90;;;;;;5075128;28;20542;-71
2022/09/24 07:37:59;;;;;;;34.08;30.42;;;14.10;99.90;;;;;;5074628;28;20044;-71
2022/09/24 07:40:25;;;;;;;36.53;31.63;;;14.10;99.90;;;;;;5075015;28;20406;-71
2022/09/24 07:42:53;;;;;;;35.67;31.42;;;14.10;99.90;;;;;;5056663;28;20056;-71
2022/09/24 07:45:18;;;;;;;34.08;30.52;;;14.10;99.90;;;;;;5074511;28;20048;-71
2022/09/24 07:47:44;;;;;;;32.92;29.20;;;14.10;99.90;;;;;;5074363;28;20044;-71
2022/09/24 07:50:12;;;;;;;35.92;31.30;;;14.10;99.90;;;;;;5074666;28;20391;-71
2022/09/24 07:52:38;;;;;;;;;;;14.10;99.90;;;;;;5075067;28;20045;-71
2022/09/24 07:55:04;;;;;;;36.20;31.80;;;14.10;99.90;;;;;;5074388;28;19925;-71
2022/09/24 07:57:30;;;;;;;34.78;30.10;;;14.20;99.90;;;;;;5074445;28;20087;-71
2022/09/24 07:59:55;;;;;;;35.63;31.13;;;14.20;99.90;;;;;;5074253;28;20503;-71
2022/09/24 08:02:21;;;;;;;32.75;28.88;;;14.20;99.90;;;;;;5074340;28;20051;-71
2022/09/24 08:04:48;;;;;;;32.60;29.00;;;14.30;99.90;;;;;;5056177;28;20040;-71
2022/09/24 08:07:14;;;;;;;32.22;28.73;;;14.30;99.90;;;;;;5073647;28;20403;-71
2022/09/24 08:09:39;;;;;;;34.15;30.38;;;14.40;99.90;;;;;;5074152;28;20037;-71
2022/09/24 08:12:06;;;;;;;33.22;29.73;;;14.40;99.90;;;;;;5073930;28;20131;-71
2022/09/24 08:14:32;;;;;;;35.20;31.40;;;14.50;99.90;;;;;;5073956;28;20051;-71
2022/09/24 08:16:58;;;;;;;34.45;30.60;;;14.50;99.90;;;;;;5073773;28;20040;-71
2022/09/24 08:19:23;;;;;;;35.20;30.23;;;14.50;99.90;;;;;;5074185;28;20040;-71
2022/09/24 08:21:49;;;;;;;34.00;30.30;;;14.50;99.90;;;;;;5073887;28;20068;-71
2022/09/24 08:24:15;;;;;;;34.47;30.30;;;14.60;99.90;;;;;;5073746;28;20161;-71
2022/09/24 08:26:41;;;;;;;33.42;29.83;;;14.70;99.90;;;;;;5074074;28;20043;-71
2022/09/24 08:29:07;;;;;;;34.97;29.88;;;14.70;99.90;;;;;;5073619;28;20036;-71
2022/09/24 08:31:36;;;;;;;32.95;29.35;;;14.70;99.90;;;;;;5073472;28;20123;-71
2022/09/24 08:34:01;;;;;;;34.03;30.30;;;14.70;99.90;;;;;;5073699;28;20041;-71
2022/09/24 08:36:27;;;;;;;33.72;29.55;;;14.80;99.90;;;;;;5073655;28;20040;-71
2022/09/24 08:38:56;;;;;;;35.08;31.13;;;14.90;99.90;;;;;;5073582;28;20045;-70
2022/09/24 08:41:43;;;;;;;34.58;29.48;;;14.90;99.90;;;;;;5073197;28;20048;-70
2022/09/24 08:47:35;;;;;;;32.05;28.65;;;14.90;99.90;;;;;;5073519;28;20283;-71
2022/09/24 08:50:10;;;;;;;32.50;28.45;;;14.90;99.90;;;;;;5065319;28;20048;-71
2022/09/24 08:52:42;;;;;;;32.13;28.48;;;14.90;99.90;;;;;;5075851;28;20049;-71
2022/09/24 08:55:35;;;;;;;31.92;28.52;;;14.90;99.90;;;;;;5073650;28;20045;-71
2022/09/24 08:58:26;;;;;;;30.67;27.48;;;14.90;99.90;;;;;;5073662;28;20048;-70
2022/09/24 09:01:02;;;;;;;29.88;26.42;;;14.90;99.90;;;;;;5073180;28;20588;-70
2022/09/24 09:03:48;;;;;;;29.17;26.00;;;15.00;99.90;;;;;;5073470;28;20059;-71
2022/09/24 09:06:32;;;;;;;27.35;24.55;;;15.10;99.90;;;;;;5073247;28;20494;-71
2022/09/24 09:09:09;;;;;;;25.65;22.83;;;15.10;99.90;;;;;;5073060;28;20046;-71
2022/09/24 09:11:36;;;;;;;25.05;22.45;;;15.10;99.90;;;;;;5073494;28;20051;-71
2022/09/24 09:14:18;;;;;;;24.35;21.50;;;15.30;99.90;;;;;;5073288;28;20419;-70
2022/09/24 09:17:16;;;;;;;22.27;20.08;;;15.40;99.90;;;;;;5073413;28;20102;-70
2022/09/24 09:19:47;;;;;;;21.98;19.77;;;15.50;99.90;;;;;;5048897;28;20118;-70
2022/09/24 09:22:15;;;;;;;20.92;18.83;;;15.60;99.90;;;;;;5073007;28;20055;-70
2022/09/24 09:24:49;;;;;;;22.08;19.77;;;15.50;99.90;;;;;;5055424;28;20040;-70
2022/09/24 09:27:16;;;;;;;19.70;17.77;;;15.60;99.90;;;;;;5073132;28;20067;-70
2022/09/24 09:29:49;;;;;;;22.35;20.15;;;15.50;99.90;;;;;;5055070;28;20044;-70
2022/09/24 09:32:37;;;;;;;20.25;18.25;;;15.50;99.90;;;;;;5073241;28;20076;-70
2022/09/24 09:35:18;;;;;;;19.75;17.85;;;15.40;99.90;;;;;;5073110;28;20114;-70
2022/09/24 09:37:51;;;;;;;19.33;17.33;;;15.40;99.90;;;;;;5072913;28;20572;-70
2022/09/24 09:40:47;;;;;;;20.33;18.23;;;15.40;99.90;;;;;;5070754;28;20391;-70
2022/09/24 09:43:13;;;;;;;19.35;17.35;;;15.30;99.90;;;;;;5050552;28;20053;-70
2022/09/24 09:46:11;;;;;;;19.90;17.75;;;15.20;99.90;;;;;;5072865;28;20086;-71
2022/09/24 09:49:00;;;;;;;19.38;17.38;;;15.20;99.90;;;;;;5072348;28;20158;-70
2022/09/24 09:51:36;;;;;;;19.60;17.60;;;15.10;99.90;;;;;;5073080;28;20107;-70
2022/09/24 09:54:02;;;;;;;18.42;16.52;;;15.10;99.90;;;;;;5072892;28;20040;-70
2022/09/24 09:56:33;;;;;;;17.73;15.93;;;15.20;99.90;;;;;;5072819;28;20044;-70
2022/09/24 09:59:05;;;;;;;17.50;15.70;;;15.20;99.90;;;;;;5072765;28;20049;-70
2022/09/24 10:01:33;;;;;;;18.17;16.27;;;15.30;99.90;;;;;;5054684;28;20041;-70
2022/09/24 10:04:02;;;;;;;;;;;15.30;99.90;;;;;;5055201;28;20115;-70
2022/09/24 10:06:33;;;;;;;18.50;16.60;;;15.40;99.90;;;;;;5054960;28;19921;-70
2022/09/24 10:09:16;;;;;;;18.08;16.17;;;15.50;99.90;;;;;;5055440;28;20052;-70
2022/09/24 10:11:42;;;;;;;19.17;16.92;;;15.50;99.90;;;;;;5055205;28;20080;-70
2022/09/24 10:14:17;;;;;;;18.80;16.85;;;15.50;99.90;;;;;;5072865;28;20076;-70
2022/09/24 10:16:46;;;;;;;17.88;16.08;;;15.50;99.90;;;;;;5072781;28;20093;-70
2022/09/24 10:19:23;;;;;;;18.58;16.35;;;15.50;99.90;;;;;;5072615;28;20041;-70
2022/09/24 10:21:50;;;;;;;17.00;15.30;;;15.50;99.90;;;;;;5072505;28;20043;-70
2022/09/24 10:24:22;;;;;;;19.17;15.77;;;15.50;99.90;;;;;;5072851;28;20040;-70
2022/09/24 10:26:48;;;;;;;18.25;15.00;;;15.40;99.90;;;;;;5054754;28;20032;-70
2022/09/24 10:32:20;;;;;;;16.55;13.70;;;15.50;99.90;;;;;;5076010;28;20052;-70
2022/09/24 10:34:58;;;;;;;15.25;13.32;;;15.60;99.90;;;;;;5076226;28;20072;-70
2022/09/24 10:37:24;;;;;;;14.52;11.70;;;15.80;99.90;;;;;;5076253;28;20383;-70
2022/09/24 10:40:00;;;;;;;14.32;11.57;;;15.70;99.90;;;;;;5075766;28;20510;-70
2022/09/24 10:42:28;;;;;;;14.27;11.88;;;15.80;99.90;;;;;;5075818;28;20052;-70
2022/09/24 10:44:57;;;;;;;14.00;12.02;;;15.90;99.90;;;;;;5075698;28;20090;-70
2022/09/24 10:48:13;;;;;;;14.15;11.52;;;15.80;99.90;;;;;;5075916;28;20063;-70
2022/09/24 10:51:10;;;;;;;12.90;11.00;;;15.80;99.90;;;;;;5041694;28;20056;-70
2022/09/24 10:53:40;;;;;;;14.13;10.80;;;15.80;99.90;;;;;;5049560;28;20087;-70
2022/09/24 10:56:20;;;;;;;12.88;9.38;;;15.80;99.90;;;;;;5075738;28;20110;-70
2022/09/24 10:59:16;;;;;;;13.88;9.20;;;15.80;99.90;;;;;;5057828;28;20044;-70
2022/09/24 11:02:07;;;;;;;12.70;6.63;;;15.90;99.90;;;;;;5075241;28;20045;-71
2022/09/24 11:04:56;;;;;;;10.73;3.28;;;15.90;99.90;;;;;;5057561;28;20044;-71
2022/09/24 11:07:40;;;;;;;11.57;3.42;;;16.00;99.90;;;;;;5041014;28;20114;-70
2022/09/24 11:10:35;;;;;;;8.65;1.95;;;16.10;99.90;;;;;;5075578;28;20044;-71
2022/09/24 11:13:40;;;;;;;7.65;2.63;;;15.90;99.90;;;;;;5066990;28;20468;-70
2022/09/24 11:16:09;;;;;;;8.20;2.22;;;15.70;99.90;;;;;;5075118;28;20123;-70
2022/09/24 11:18:46;;;;;;;5.10;1.60;;;15.60;99.90;;;;;;5075295;28;20376;-71
2022/09/24 11:21:48;;;;;;;8.50;1.45;;;15.50;99.90;;;;;;5075164;28;20089;-70
2022/09/24 11:24:41;;;;;;;3.47;1.10;;;15.60;99.90;;;;;;5075164;28;20403;-70
2022/09/24 11:27:43;;;;;;;5.00;1.38;;;15.60;99.90;;;;;;5075449;28;20049;-70
2022/09/24 11:30:23;;;;;;;5.95;1.30;;;15.50;99.90;;;;;;5075020;28;20052;-70
2022/09/24 11:32:55;;;;;;;4.88;1.48;;;15.50;99.90;;;;;;5074780;28;20155;-71
2022/09/24 11:36:05;;;;;;;10.70;2.10;;;15.40;99.90;;;;;;5074776;28;20483;-71
2022/09/24 11:38:43;;;;;;;4.57;1.45;;;15.30;99.90;;;;;;5074796;28;20513;-71
2022/09/24 11:41:26;;;;;;;4.65;1.48;;;15.30;99.90;;;;;;5039136;28;20102;-71
2022/09/24 11:44:10;;;;;;;5.90;1.73;;;15.20;99.90;;;;;;5057248;28;20063;-71
2022/09/24 11:47:00;;;;;;;5.35;2.10;;;15.20;99.90;;;;;;5056739;28;20037;-70
2022/09/24 11:49:41;;;;;;;7.22;1.60;;;15.20;99.90;;;;;;5056534;28;20128;-70
2022/09/24 11:52:31;;;;;;;6.00;2.00;;;15.10;99.90;;;;;;5074695;28;20372;-71
2022/09/24 11:55:24;;;;;;;9.10;1.90;;;15.10;99.90;;;;;;5074669;28;20098;-70
2022/09/24 11:58:02;;;;;;;8.98;1.90;;;15.10;99.90;;;;;;5074270;28;20036;-70
2022/09/24 12:00:36;;;;;;;8.48;2.10;;;14.90;99.90;;;;;;5056688;28;20052;-70
2022/09/24 12:03:11;;;;;;;7.70;2.00;;;15.00;99.90;;;;;;5074251;28;20036;-70
2022/09/24 12:05:43;;;;;;;10.02;2.10;;;14.90;99.90;;;;;;5074242;28;20403;-70
2022/09/24 12:08:19;;;;;;;9.57;2.25;;;15.00;99.90;;;;;;5074162;28;20044;-71
2022/09/24 12:10:51;;;;;;;9.80;2.50;;;15.20;99.90;;;;;;5074203;28;20044;-70
2022/09/24 12:14:01;;;;;;;8.50;2.40;;;15.10;99.90;;;;;;5074200;28;20068;-70
2022/09/24 12:16:31;;;;;;;8.43;1.67;;;15.20;99.90;;;;;;4956850;28;20062;-71
2022/09/24 12:19:19;;;;;;;8.02;1.77;;;15.20;99.90;;;;;;4973152;28;20514;-70
2022/09/24 12:21:48;;;;;;;9.25;1.85;;;15.30;99.90;;;;;;4973024;28;20043;-70
2022/09/24 12:24:20;;;;;;;8.13;1.80;;;15.30;99.90;;;;;;4973016;28;20074;-70
2022/09/24 12:26:48;;;;;;;7.35;1.73;;;15.40;99.90;;;;;;4973093;28;20439;-70
2022/09/24 12:32:54;;;;;;;8.52;1.90;;;15.30;99.90;;;;;;4972978;28;20051;-71
2022/09/24 12:35:53;;;;;;;9.48;1.85;;;15.20;99.90;;;;;;4972866;28;20051;-71
2022/09/24 12:38:22;;;;;;;8.95;1.90;;;15.10;99.90;;;;;;4972826;28;20477;-70
2022/09/24 12:41:06;;;;;;;7.60;1.60;;;15.00;99.90;;;;;;4972804;28;20055;-70
2022/09/24 12:43:57;;;;;;;9.40;1.90;;;15.10;99.90;;;;;;4972734;28;20054;-71
2022/09/24 12:46:51;;;;;;;5.35;1.45;;;15.20;99.90;;;;;;4972964;28;20055;-70
2022/09/24 12:49:25;;;;;;;6.18;1.30;;;15.30;99.90;;;;;;4972692;28;20047;-71
2022/09/24 12:52:26;;;;;;;9.02;1.92;;;15.40;99.90;;;;;;4998405;28;20052;-71
2022/09/24 12:55:01;;;;;;;3.42;1.20;;;15.40;99.90;;;;;;5019832;28;20056;-71
2022/09/24 12:57:39;;;;;;;3.88;1.48;;;15.60;99.90;;;;;;5055703;28;20395;-70
2022/09/24 13:00:52;;;;;;;6.90;1.85;;;15.80;99.90;;;;;;5073429;28;20076;-70
2022/09/24 13:03:36;;;;;;;6.25;1.70;;;15.70;99.90;;;;;;5069809;28;20053;-70
2022/09/24 13:06:03;;;;;;;7.05;1.52;;;15.70;99.90;;;;;;5073670;28;20037;-70
2022/09/24 13:08:40;;;;;;;5.53;1.63;;;15.70;99.90;;;;;;5055223;28;20040;-71
2022/09/24 13:11:28;;;;;;;3.92;1.42;;;15.80;99.90;;;;;;5073166;28;20086;-70